createdAt,value
2019-04-30T00:00:25.783Z,43.16
2019-04-30T00:01:25.118Z,43.07
2019-04-30T00:02:27.808Z,43.16
2019-04-30T00:03:25.058Z,44.02
2019-04-30T00:04:25.375Z,43.93
2019-04-30T00:05:25.096Z,43.83
2019-04-30T00:06:27.395Z,43.93
2019-04-30T00:07:24.850Z,43.16
2019-04-30T00:08:25.589Z,43.45
2019-04-30T00:09:25.058Z,42.88
2019-04-30T00:10:29.553Z,42.69
2019-04-30T00:11:25.101Z,42.79
2019-04-30T00:12:23.366Z,42.31
2019-04-30T00:13:23.337Z,42.21
2019-04-30T00:14:25.037Z,42.31
2019-04-30T00:15:23.196Z,42.31
2019-04-30T00:16:25.157Z,41.74
2019-04-30T00:17:23.122Z,42.21
2019-04-30T00:18:23.031Z,42.21
2019-04-30T00:19:22.976Z,42.02
2019-04-30T00:20:22.969Z,42.60
2019-04-30T00:21:24.890Z,42.40
2019-04-30T00:22:33.085Z,41.93
2019-04-30T00:23:29.314Z,42.12
2019-04-30T00:24:22.706Z,41.74
2019-04-30T00:25:26.924Z,42.50
2019-04-30T00:26:22.600Z,42.21
2019-04-30T00:27:26.419Z,41.74
2019-04-30T00:28:22.486Z,42.21
2019-04-30T00:29:26.675Z,41.93
2019-04-30T00:30:22.412Z,41.83
2019-04-30T00:31:23.777Z,42.12
2019-04-30T00:32:22.272Z,42.02
2019-04-30T00:33:25.081Z,42.12
2019-04-30T00:34:22.165Z,42.40
2019-04-30T00:35:22.133Z,42.02
2019-04-30T00:36:22.057Z,42.50
2019-04-30T00:37:22.000Z,42.21
2019-04-30T00:38:21.945Z,42.31
2019-04-30T00:39:21.891Z,42.40
2019-04-30T00:40:26.012Z,42.40
2019-04-30T00:41:21.813Z,42.79
2019-04-30T00:42:24.198Z,42.88
2019-04-30T00:43:21.676Z,42.40
2019-04-30T00:44:24.896Z,43.16
2019-04-30T00:45:21.613Z,42.88
2019-04-30T00:46:25.515Z,42.79
2019-04-30T00:47:21.465Z,42.97
2019-04-30T00:48:27.856Z,43.64
2019-04-30T00:49:23.140Z,43.26
2019-04-30T00:50:21.327Z,42.88
2019-04-30T00:51:21.599Z,43.54
2019-04-30T00:52:21.189Z,43.26
2019-04-30T00:53:21.133Z,43.45
2019-04-30T00:54:22.404Z,44.02
2019-04-30T00:55:21.025Z,43.83
2019-04-30T00:56:24.763Z,43.64
2019-04-30T00:57:20.922Z,43.45
2019-04-30T00:58:25.850Z,43.54
2019-04-30T00:59:20.808Z,44.02
2019-04-30T01:00:28.062Z,43.16
2019-04-30T01:01:20.732Z,43.83
2019-04-30T01:02:29.098Z,43.73
2019-04-30T01:03:20.589Z,43.83
2019-04-30T01:04:24.692Z,43.83
2019-04-30T01:05:20.485Z,43.83
2019-04-30T01:06:26.776Z,44.21
2019-04-30T01:07:20.409Z,43.83
2019-04-30T01:08:21.180Z,44.12
2019-04-30T01:09:20.264Z,44.02
2019-04-30T01:10:24.839Z,43.93
2019-04-30T01:11:20.155Z,43.83
2019-04-30T01:12:27.791Z,44.02
2019-04-30T01:13:20.080Z,44.12
2019-04-30T01:14:23.261Z,45.07
2019-04-30T01:15:19.941Z,45.16
2019-04-30T01:16:23.567Z,45.07
2019-04-30T01:17:19.834Z,45.07
2019-04-30T01:18:23.542Z,45.07
2019-04-30T01:19:29.747Z,45.16
2019-04-30T01:20:19.672Z,45.73
2019-04-30T01:21:19.613Z,45.92
2019-04-30T01:22:27.857Z,46.30
2019-04-30T01:23:19.609Z,46.40
2019-04-30T01:24:23.419Z,45.92
2019-04-30T01:25:20.712Z,46.59
2019-04-30T01:26:22.855Z,46.88
2019-04-30T01:27:19.322Z,47.16
2019-04-30T01:28:22.888Z,46.88
2019-04-30T01:29:19.375Z,47.16
2019-04-30T01:30:22.766Z,47.25
2019-04-30T01:31:21.063Z,46.97
2019-04-30T01:32:20.901Z,46.68
2019-04-30T01:33:19.216Z,46.78
2019-04-30T01:34:19.575Z,46.97
2019-04-30T01:35:19.239Z,47.06
2019-04-30T01:36:19.312Z,47.34
2019-04-30T01:37:24.633Z,47.16
2019-04-30T01:38:18.993Z,46.78
2019-04-30T01:39:19.561Z,46.59
2019-04-30T01:40:19.044Z,46.68
2019-04-30T01:41:20.282Z,47.16
2019-04-30T01:42:18.598Z,47.25
2019-04-30T01:43:23.142Z,47.34
2019-04-30T01:44:19.539Z,46.88
2019-04-30T01:45:18.745Z,47.16
2019-04-30T01:46:19.238Z,47.16
2019-04-30T01:47:21.454Z,47.34
2019-04-30T01:48:19.384Z,47.25
2019-04-30T01:49:19.981Z,47.25
2019-04-30T01:50:19.400Z,47.63
2019-04-30T01:51:21.692Z,47.06
2019-04-30T01:52:19.396Z,47.44
2019-04-30T01:53:18.645Z,47.63
2019-04-30T01:54:23.893Z,47.73
2019-04-30T01:55:19.622Z,48.01
2019-04-30T01:56:19.167Z,48.30
2019-04-30T01:57:19.267Z,48.21
2019-04-30T01:58:19.310Z,48.21
2019-04-30T01:59:19.041Z,48.39
2019-04-30T02:00:19.444Z,48.58
2019-04-30T02:01:19.005Z,49.25
2019-04-30T02:02:18.535Z,49.06
2019-04-30T02:03:19.200Z,48.49
2019-04-30T02:04:17.281Z,48.49
2019-04-30T02:05:18.875Z,48.87
2019-04-30T02:06:17.211Z,48.87
2019-04-30T02:07:18.976Z,48.58
2019-04-30T02:08:17.064Z,48.96
2019-04-30T02:09:18.887Z,49.25
2019-04-30T02:10:18.646Z,48.87
2019-04-30T02:11:18.824Z,49.15
2019-04-30T02:12:16.846Z,49.25
2019-04-30T02:13:18.774Z,49.63
2019-04-30T02:14:16.735Z,49.63
2019-04-30T02:15:16.696Z,49.63
2019-04-30T02:16:18.700Z,49.82
2019-04-30T02:17:16.576Z,49.54
2019-04-30T02:18:16.519Z,49.91
2019-04-30T02:19:16.497Z,49.91
2019-04-30T02:20:16.408Z,49.63
2019-04-30T02:21:16.356Z,50.10
2019-04-30T02:22:16.302Z,49.73
2019-04-30T02:23:16.279Z,49.54
2019-04-30T02:24:16.190Z,49.63
2019-04-30T02:25:16.138Z,49.63
2019-04-30T02:26:16.091Z,49.73
2019-04-30T02:27:16.033Z,50.01
2019-04-30T02:28:16.009Z,49.54
2019-04-30T02:29:15.919Z,49.63
2019-04-30T02:30:15.888Z,49.44
2019-04-30T02:31:15.821Z,49.91
2019-04-30T02:32:15.782Z,50.01
2019-04-30T02:33:15.701Z,50.10
2019-04-30T02:34:15.648Z,49.91
2019-04-30T02:35:15.596Z,50.20
2019-04-30T02:36:15.543Z,50.20
2019-04-30T02:37:15.522Z,50.87
2019-04-30T02:38:15.434Z,50.29
2019-04-30T02:39:15.421Z,50.20
2019-04-30T02:40:15.321Z,50.20
2019-04-30T02:41:15.267Z,50.39
2019-04-30T02:42:15.212Z,50.39
2019-04-30T02:43:15.157Z,50.68
2019-04-30T02:44:15.137Z,50.48
2019-04-30T02:45:15.048Z,50.39
2019-04-30T02:46:14.995Z,50.68
2019-04-30T02:47:14.963Z,50.58
2019-04-30T02:48:14.883Z,50.58
2019-04-30T02:49:14.827Z,51.25
2019-04-30T02:50:18.638Z,50.87
2019-04-30T02:51:14.718Z,50.68
2019-04-30T02:52:14.668Z,51.25
2019-04-30T02:53:14.610Z,51.34
2019-04-30T02:54:14.596Z,50.68
2019-04-30T02:55:14.501Z,50.68
2019-04-30T02:56:14.449Z,51.15
2019-04-30T02:57:14.401Z,51.34
2019-04-30T02:58:14.339Z,51.25
2019-04-30T02:59:14.323Z,51.53
2019-04-30T03:00:14.236Z,51.72
2019-04-30T03:01:14.170Z,51.82
2019-04-30T03:02:14.119Z,51.62
2019-04-30T03:03:14.064Z,51.91
2019-04-30T03:04:14.044Z,51.91
2019-04-30T03:05:14.106Z,52.10
2019-04-30T03:06:13.901Z,52.10
2019-04-30T03:07:13.846Z,52.10
2019-04-30T03:08:13.831Z,52.29
2019-04-30T03:09:13.737Z,53.24
2019-04-30T03:10:13.683Z,54.10
2019-04-30T03:11:13.626Z,53.97
2019-04-30T03:12:13.570Z,54.45
2019-04-30T03:13:13.549Z,54.74
2019-04-30T03:14:13.463Z,54.83
2019-04-30T03:15:13.409Z,55.40
2019-04-30T03:16:13.356Z,55.11
2019-04-30T03:17:13.324Z,55.40
2019-04-30T03:18:13.246Z,55.50
2019-04-30T03:19:13.195Z,55.97
2019-04-30T03:20:27.714Z,56.07
2019-04-30T03:21:13.092Z,57.02
2019-04-30T03:22:13.026Z,57.02
2019-04-30T03:23:12.979Z,57.59
2019-04-30T03:24:12.926Z,57.50
2019-04-30T03:25:12.890Z,57.68
2019-04-30T03:26:13.087Z,58.63
2019-04-30T03:27:12.784Z,58.83
2019-04-30T03:28:12.699Z,59.11
2019-04-30T03:29:12.639Z,58.83
2019-04-30T03:30:12.657Z,58.83
2019-04-30T03:31:12.805Z,58.92
2019-04-30T03:32:14.148Z,58.06
2019-04-30T03:33:13.309Z,58.73
2019-04-30T03:34:19.564Z,58.06
2019-04-30T03:35:13.276Z,57.97
2019-04-30T03:36:13.045Z,57.59
2019-04-30T03:37:12.237Z,57.30
2019-04-30T03:38:12.148Z,57.21
2019-04-30T03:39:12.093Z,57.40
2019-04-30T03:40:13.181Z,56.73
2019-04-30T03:41:11.982Z,56.63
2019-04-30T03:42:11.961Z,57.21
2019-04-30T03:43:11.910Z,57.11
2019-04-30T03:44:21.427Z,56.92
2019-04-30T03:45:11.763Z,57.21
2019-04-30T03:46:11.707Z,56.92
2019-04-30T03:47:11.671Z,57.11
2019-04-30T03:48:11.641Z,58.13
2019-04-30T03:49:13.445Z,58.54
2019-04-30T03:50:11.487Z,59.39
2019-04-30T03:51:11.437Z,59.36
2019-04-30T03:52:13.398Z,59.65
2019-04-30T03:53:11.363Z,59.93
2019-04-30T03:54:11.301Z,60.13
2019-04-30T03:55:11.214Z,59.55
2019-04-30T03:56:11.157Z,58.98
2019-04-30T03:57:11.116Z,58.80
2019-04-30T03:58:11.091Z,58.89
2019-04-30T03:59:11.047Z,58.89
2019-04-30T04:00:10.937Z,59.55
2019-04-30T04:01:10.882Z,60.03
2019-04-30T04:02:12.747Z,60.69
2019-04-30T04:03:10.816Z,61.17
2019-04-30T04:04:10.718Z,61.45
2019-04-30T04:05:10.663Z,61.83
2019-04-30T04:06:10.611Z,62.02
2019-04-30T04:07:10.553Z,62.02
2019-04-30T04:08:10.525Z,61.65
2019-04-30T04:09:10.492Z,61.26
2019-04-30T04:10:10.385Z,61.83
2019-04-30T04:11:10.332Z,62.02
2019-04-30T04:12:12.068Z,61.93
2019-04-30T04:13:10.474Z,61.45
2019-04-30T04:14:10.165Z,61.45
2019-04-30T04:15:10.634Z,61.26
2019-04-30T04:16:10.050Z,60.69
2019-04-30T04:17:10.002Z,61.45
2019-04-30T04:18:10.708Z,61.36
2019-04-30T04:19:09.931Z,61.36
2019-04-30T04:20:10.656Z,61.45
2019-04-30T04:21:16.511Z,61.74
2019-04-30T04:22:12.240Z,62.12
2019-04-30T04:23:09.822Z,62.50
2019-04-30T04:24:10.595Z,62.40
2019-04-30T04:25:13.066Z,62.88
2019-04-30T04:26:09.659Z,63.35
2019-04-30T04:27:09.743Z,63.54
2019-04-30T04:28:10.107Z,63.26
2019-04-30T04:29:12.261Z,63.35
2019-04-30T04:30:10.620Z,63.54
2019-04-30T04:31:09.610Z,64.49
2019-04-30T04:32:10.660Z,64.21
2019-04-30T04:33:10.243Z,65.06
2019-04-30T04:34:09.412Z,64.97
2019-04-30T04:35:12.221Z,65.16
2019-04-30T04:36:09.243Z,65.54
2019-04-30T04:37:10.045Z,66.11
2019-04-30T04:38:12.276Z,65.54
2019-04-30T04:39:09.800Z,64.97
2019-04-30T04:40:09.401Z,64.87
2019-04-30T04:41:10.369Z,64.59
2019-04-30T04:42:10.138Z,64.49
2019-04-30T04:43:10.356Z,64.97
2019-04-30T04:44:12.610Z,64.59
2019-04-30T04:45:09.955Z,64.49
2019-04-30T04:46:09.287Z,65.35
2019-04-30T04:47:09.887Z,65.06
2019-04-30T04:48:09.536Z,65.54
2019-04-30T04:49:08.998Z,65.25
2019-04-30T04:50:10.294Z,64.78
2019-04-30T04:51:19.831Z,64.87
2019-04-30T04:52:10.192Z,65.06
2019-04-30T04:53:11.259Z,64.87
2019-04-30T04:54:10.341Z,65.06
2019-04-30T04:55:10.052Z,65.25
2019-04-30T04:56:09.887Z,66.20
2019-04-30T04:57:14.824Z,66.11
2019-04-30T04:58:09.686Z,66.96
2019-04-30T04:59:10.075Z,67.44
2019-04-30T05:00:10.438Z,67.53
2019-04-30T05:01:09.057Z,68.96
2019-04-30T05:02:09.492Z,69.62
2019-04-30T05:03:09.344Z,69.81
2019-04-30T05:04:11.481Z,69.91
2019-04-30T05:05:09.481Z,70.67
2019-04-30T05:06:11.369Z,70.48
2019-04-30T05:07:09.065Z,70.57
2019-04-30T05:08:08.883Z,71.33
2019-04-30T05:09:07.115Z,71.43
2019-04-30T05:10:09.040Z,71.23
2019-04-30T05:11:07.055Z,72.00
2019-04-30T05:12:08.523Z,72.28
2019-04-30T05:13:06.894Z,72.66
2019-04-30T05:14:08.376Z,72.66
2019-04-30T05:15:06.789Z,73.52
2019-04-30T05:16:06.777Z,73.33
2019-04-30T05:17:06.675Z,72.85
2019-04-30T05:18:06.618Z,73.42
2019-04-30T05:19:08.571Z,73.80
2019-04-30T05:20:06.507Z,74.18
2019-04-30T05:21:06.491Z,74.18
2019-04-30T05:22:06.396Z,74.37
2019-04-30T05:23:06.347Z,74.37
2019-04-30T05:24:06.290Z,74.47
2019-04-30T05:25:06.236Z,74.47
2019-04-30T05:26:06.207Z,74.85
2019-04-30T05:27:06.123Z,74.85
2019-04-30T05:28:06.073Z,75.51
2019-04-30T05:29:06.043Z,75.89
2019-04-30T05:30:05.955Z,76.12
2019-04-30T05:31:05.925Z,75.36
2019-04-30T05:32:05.843Z,75.45
2019-04-30T05:33:05.792Z,75.74
2019-04-30T05:34:06.430Z,76.12
2019-04-30T05:35:05.725Z,76.40
2019-04-30T05:36:05.623Z,77.36
2019-04-30T05:37:05.568Z,77.45
2019-04-30T05:38:05.516Z,77.92
2019-04-30T05:39:05.460Z,78.59
2019-04-30T05:40:05.438Z,79.06
2019-04-30T05:41:05.349Z,79.06
2019-04-30T05:42:05.292Z,79.54
2019-04-30T05:43:05.240Z,78.88
2019-04-30T05:44:05.217Z,79.25
2019-04-30T05:45:05.130Z,79.35
2019-04-30T05:46:05.074Z,79.06
2019-04-30T05:47:05.021Z,79.92
2019-04-30T05:48:04.963Z,80.30
2019-04-30T05:49:04.940Z,80.21
2019-04-30T05:50:04.865Z,80.58
2019-04-30T05:51:04.800Z,80.40
2019-04-30T05:52:04.745Z,79.44
2019-04-30T05:53:04.691Z,80.77
2019-04-30T05:54:04.670Z,81.06
2019-04-30T05:55:04.583Z,81.82
2019-04-30T05:56:04.560Z,81.63
2019-04-30T05:57:04.472Z,81.35
2019-04-30T05:58:04.417Z,82.10
2019-04-30T05:59:04.368Z,82.39
2019-04-30T06:00:04.349Z,82.29
2019-04-30T06:01:04.256Z,83.15
2019-04-30T06:02:04.199Z,83.62
2019-04-30T06:03:04.143Z,83.62
2019-04-30T06:04:04.088Z,83.15
2019-04-30T06:05:04.097Z,82.77
2019-04-30T06:06:03.980Z,82.58
2019-04-30T06:07:03.926Z,83.06
2019-04-30T06:08:03.875Z,83.06
2019-04-30T06:09:06.689Z,83.06
2019-04-30T06:10:03.791Z,83.62
2019-04-30T06:11:03.710Z,83.72
2019-04-30T06:12:03.649Z,83.06
2019-04-30T06:13:03.597Z,83.06
2019-04-30T06:14:03.578Z,82.29
2019-04-30T06:15:03.488Z,83.91
2019-04-30T06:16:03.470Z,83.53
2019-04-30T06:17:03.386Z,85.24
2019-04-30T06:18:11.514Z,85.91
2019-04-30T06:19:03.268Z,88.19
2019-04-30T06:20:03.211Z,88.33
2019-04-30T06:21:03.162Z,88.61
2019-04-30T06:22:07.501Z,90.75
2019-04-30T06:23:03.052Z,90.00
2019-04-30T06:24:02.997Z,91.56
2019-04-30T06:25:02.948Z,91.94
2019-04-30T06:26:09.618Z,92.61
2019-04-30T06:27:02.865Z,92.99
2019-04-30T06:28:02.820Z,93.37
2019-04-30T06:29:02.726Z,92.51
2019-04-30T06:30:02.669Z,93.18
2019-04-30T06:31:02.617Z,94.13
2019-04-30T06:32:02.559Z,93.37
2019-04-30T06:33:02.544Z,93.65
2019-04-30T06:34:02.455Z,95.17
2019-04-30T06:35:02.397Z,96.22
2019-04-30T06:36:02.348Z,96.12
2019-04-30T06:37:02.290Z,96.22
2019-04-30T06:38:02.276Z,95.56
2019-04-30T06:39:02.180Z,97.27
2019-04-30T06:40:02.125Z,99.84
2019-04-30T06:41:02.070Z,98.50
2019-04-30T06:42:06.492Z,99.26
2019-04-30T06:43:01.997Z,99.99
2019-04-30T06:44:01.908Z,99.99
2019-04-30T06:45:01.862Z,99.99
2019-04-30T06:46:01.803Z,99.99
2019-04-30T06:47:01.754Z,99.99
2019-04-30T06:48:01.719Z,99.99
2019-04-30T06:49:01.643Z,99.99
2019-04-30T06:50:01.598Z,99.99
2019-04-30T06:51:01.570Z,99.99
2019-04-30T06:52:01.485Z,99.99
2019-04-30T06:53:01.776Z,99.99
2019-04-30T06:54:01.370Z,99.99
2019-04-30T06:55:01.318Z,99.99
2019-04-30T06:56:01.294Z,99.99
2019-04-30T06:57:01.216Z,99.99
2019-04-30T06:58:11.993Z,99.99
2019-04-30T06:59:01.132Z,99.99
2019-04-30T07:00:01.072Z,99.99
2019-04-30T07:01:00.993Z,99.99
2019-04-30T07:02:00.941Z,99.99
2019-04-30T07:03:00.923Z,99.99
2019-04-30T07:04:01.098Z,99.99
2019-04-30T07:05:00.813Z,99.99
2019-04-30T07:06:00.959Z,99.99
2019-04-30T07:07:00.673Z,99.99
2019-04-30T07:08:07.145Z,99.99
2019-04-30T07:09:00.567Z,99.99
2019-04-30T07:10:01.250Z,99.99
2019-04-30T07:11:07.399Z,99.99
2019-04-30T07:12:00.439Z,99.99
2019-04-30T07:13:00.349Z,99.99
2019-04-30T07:14:00.300Z,99.99
2019-04-30T07:15:00.278Z,99.99
2019-04-30T07:16:00.188Z,99.99
2019-04-30T07:17:00.156Z,99.99
2019-04-30T07:18:00.125Z,99.99
2019-04-30T07:19:00.027Z,99.99
2019-04-30T07:19:59.974Z,99.99
2019-04-30T07:20:59.927Z,99.99
2019-04-30T07:21:59.867Z,99.99
2019-04-30T07:23:03.066Z,99.99
2019-04-30T07:23:59.792Z,99.99
2019-04-30T07:24:59.763Z,99.99
2019-04-30T07:25:59.653Z,99.99
2019-04-30T07:27:02.660Z,99.99
2019-04-30T07:27:59.948Z,99.99
2019-04-30T07:29:02.442Z,99.99
2019-04-30T07:29:59.639Z,99.99
2019-04-30T07:31:10.228Z,99.99
2019-04-30T07:31:59.334Z,99.99
2019-04-30T07:32:59.675Z,99.99
2019-04-30T07:33:59.586Z,99.99
2019-04-30T07:34:59.515Z,99.99
2019-04-30T07:36:01.562Z,99.99
2019-04-30T07:37:13.418Z,99.99
2019-04-30T07:38:00.602Z,99.99
2019-04-30T07:38:59.886Z,99.99
2019-04-30T07:39:59.092Z,99.99
2019-04-30T07:40:59.213Z,99.99
2019-04-30T07:41:59.915Z,99.99
2019-04-30T07:42:59.181Z,99.99
2019-04-30T07:43:59.337Z,99.99
2019-04-30T07:45:00.669Z,99.99
2019-04-30T07:45:59.798Z,99.99
2019-04-30T07:46:59.348Z,99.99
2019-04-30T07:47:59.424Z,99.99
2019-04-30T07:48:59.996Z,99.99
2019-04-30T07:50:00.685Z,99.99
2019-04-30T07:50:59.189Z,99.99
2019-04-30T07:52:00.793Z,99.99
2019-04-30T07:53:05.230Z,99.99
2019-04-30T07:53:59.043Z,99.99
2019-04-30T07:55:00.659Z,99.99
2019-04-30T07:55:58.853Z,99.99
2019-04-30T07:57:00.355Z,99.99
2019-04-30T07:57:59.188Z,99.99
2019-04-30T07:59:00.700Z,99.99
2019-04-30T07:59:59.687Z,99.99
2019-04-30T08:00:59.329Z,99.99
2019-04-30T08:02:07.563Z,99.99
2019-04-30T08:02:59.956Z,99.99
2019-04-30T08:03:58.996Z,99.99
2019-04-30T08:04:59.757Z,99.99
2019-04-30T08:05:59.559Z,99.99
2019-04-30T08:06:59.557Z,99.99
2019-04-30T08:08:15.860Z,99.99
2019-04-30T08:09:00.401Z,99.99
2019-04-30T08:09:59.007Z,99.99
2019-04-30T08:10:58.872Z,99.99
2019-04-30T08:11:58.930Z,99.99
2019-04-30T08:13:08.388Z,99.99
2019-04-30T08:13:59.012Z,99.99
2019-04-30T08:14:59.322Z,99.99
2019-04-30T08:15:57.010Z,99.99
2019-04-30T08:16:58.934Z,99.99
2019-04-30T08:18:03.594Z,98.81
2019-04-30T08:18:56.855Z,97.47
2019-04-30T08:19:58.768Z,93.93
2019-04-30T08:20:59.032Z,92.97
2019-04-30T08:21:58.532Z,95.03
2019-04-30T08:22:56.655Z,96.56
2019-04-30T08:23:56.602Z,94.21
2019-04-30T08:24:58.569Z,95.27
2019-04-30T08:25:56.500Z,95.12
2019-04-30T08:26:56.487Z,93.59
2019-04-30T08:27:56.398Z,92.35
2019-04-30T08:28:56.347Z,91.14
2019-04-30T08:29:56.300Z,90.57
2019-04-30T08:30:56.259Z,87.31
2019-04-30T08:31:56.228Z,88.41
2019-04-30T08:32:56.155Z,85.68
2019-04-30T08:33:56.096Z,86.93
2019-04-30T08:34:56.047Z,86.54
2019-04-30T08:35:56.031Z,84.38
2019-04-30T08:36:56.335Z,85.92
2019-04-30T08:37:55.897Z,86.88
2019-04-30T08:38:55.846Z,87.07
2019-04-30T08:39:55.797Z,84.19
2019-04-30T08:40:58.265Z,81.41
2019-04-30T08:41:55.706Z,82.37
2019-04-30T08:42:55.649Z,80.49
2019-04-30T08:43:55.600Z,82.51
2019-04-30T08:44:55.552Z,80.78
2019-04-30T08:45:55.534Z,80.15
2019-04-30T08:46:55.454Z,76.21
2019-04-30T08:47:55.404Z,77.26
2019-04-30T08:48:55.363Z,77.08
2019-04-30T08:49:55.380Z,74.77
2019-04-30T08:50:55.307Z,76.84
2019-04-30T08:51:55.208Z,78.57
2019-04-30T08:52:55.166Z,77.80
2019-04-30T08:53:55.113Z,76.07
2019-04-30T08:54:55.066Z,71.37
2019-04-30T08:55:55.051Z,72.63
2019-04-30T08:56:54.968Z,75.12
2019-04-30T08:58:07.547Z,74.44
2019-04-30T08:58:55.008Z,73.52
2019-04-30T08:59:54.826Z,72.75
2019-04-30T09:00:54.772Z,73.62
2019-04-30T09:01:54.724Z,71.31
2019-04-30T09:02:54.679Z,70.17
2019-04-30T09:03:54.676Z,71.22
2019-04-30T09:04:54.581Z,71.16
2019-04-30T09:05:54.539Z,67.90
2019-04-30T09:06:54.487Z,67.19
2019-04-30T09:07:54.440Z,64.82
2019-04-30T09:08:54.422Z,66.13
2019-04-30T09:09:54.344Z,65.36
2019-04-30T09:10:54.297Z,67.03
2019-04-30T09:11:55.756Z,65.69
2019-04-30T09:12:54.202Z,67.99
2019-04-30T09:13:54.188Z,67.41
2019-04-30T09:14:54.112Z,68.85
2019-04-30T09:15:54.060Z,67.51
2019-04-30T09:16:54.014Z,65.11
2019-04-30T09:18:03.147Z,67.70
2019-04-30T09:18:53.952Z,66.46
2019-04-30T09:19:53.873Z,64.28
2019-04-30T09:20:53.827Z,65.05
2019-04-30T09:21:53.814Z,65.05
2019-04-30T09:22:53.732Z,64.98
2019-04-30T09:23:53.688Z,63.45
2019-04-30T09:24:53.678Z,62.58
2019-04-30T09:25:53.632Z,61.04
2019-04-30T09:26:53.552Z,57.68
2019-04-30T09:27:53.500Z,57.65
2019-04-30T09:28:53.451Z,57.68
2019-04-30T09:29:53.407Z,59.60
2019-04-30T09:30:53.392Z,58.25
2019-04-30T09:31:53.314Z,58.95
2019-04-30T09:32:53.271Z,59.44
2019-04-30T09:33:53.223Z,58.18
2019-04-30T09:34:53.213Z,58.86
2019-04-30T09:35:53.128Z,58.67
2019-04-30T09:36:53.083Z,55.94
2019-04-30T09:37:59.075Z,56.36
2019-04-30T09:38:53.016Z,55.94
2019-04-30T09:39:52.958Z,55.68
2019-04-30T09:40:52.899Z,54.63
2019-04-30T09:41:52.855Z,54.82
2019-04-30T09:42:52.844Z,55.30
2019-04-30T09:43:52.766Z,54.02
2019-04-30T09:44:54.846Z,53.45
2019-04-30T09:45:52.670Z,53.74
2019-04-30T09:46:52.628Z,51.91
2019-04-30T09:47:52.623Z,53.83
2019-04-30T09:48:52.543Z,54.22
2019-04-30T09:49:52.490Z,55.08
2019-04-30T09:50:52.776Z,55.08
2019-04-30T09:51:52.611Z,54.69
2019-04-30T09:52:52.479Z,55.88
2019-04-30T09:53:58.678Z,55.71
2019-04-30T09:54:52.612Z,53.31
2019-04-30T09:55:52.219Z,52.34
2019-04-30T09:56:52.757Z,53.21
2019-04-30T09:57:52.167Z,52.34
2019-04-30T09:58:52.084Z,53.40
2019-04-30T09:59:52.040Z,53.11
2019-04-30T10:00:51.996Z,52.92
2019-04-30T10:01:51.952Z,51.57
2019-04-30T10:02:51.938Z,52.06
2019-04-30T10:03:52.248Z,52.56
2019-04-30T10:04:52.268Z,51.86
2019-04-30T10:05:51.801Z,53.78
2019-04-30T10:06:51.725Z,54.20
2019-04-30T10:07:51.678Z,54.27
2019-04-30T10:08:51.634Z,52.25
2019-04-30T10:09:51.589Z,54.00
2019-04-30T10:10:51.585Z,54.94
2019-04-30T10:11:51.507Z,53.78
2019-04-30T10:12:51.457Z,53.02
2019-04-30T10:13:51.411Z,51.48
2019-04-30T10:14:51.428Z,52.66
2019-04-30T10:15:51.357Z,52.08
2019-04-30T10:16:51.277Z,51.79
2019-04-30T10:17:51.237Z,52.27
2019-04-30T10:18:51.190Z,52.78
2019-04-30T10:19:51.145Z,53.17
2019-04-30T10:20:51.132Z,49.89
2019-04-30T10:21:51.063Z,48.64
2019-04-30T10:22:51.049Z,51.34
2019-04-30T10:23:50.968Z,54.42
2019-04-30T10:24:50.924Z,53.55
2019-04-30T10:25:50.886Z,51.43
2019-04-30T10:26:50.843Z,51.72
2019-04-30T10:27:50.837Z,53.17
2019-04-30T10:28:50.752Z,53.43
2019-04-30T10:29:50.708Z,51.70
2019-04-30T10:30:50.694Z,51.60
2019-04-30T10:31:50.619Z,53.05
2019-04-30T10:32:50.621Z,53.27
2019-04-30T10:33:50.531Z,53.07
2019-04-30T10:34:50.486Z,53.07
2019-04-30T10:35:50.442Z,52.20
2019-04-30T10:36:50.399Z,52.11
2019-04-30T10:37:50.406Z,52.59
2019-04-30T10:38:50.314Z,53.27
2019-04-30T10:39:50.274Z,53.17
2019-04-30T10:40:50.236Z,52.97
2019-04-30T10:41:50.181Z,53.27
2019-04-30T10:42:50.186Z,52.13
2019-04-30T10:43:50.094Z,51.36
2019-04-30T10:44:50.050Z,50.11
2019-04-30T10:45:50.007Z,49.53
2019-04-30T10:46:49.968Z,53.29
2019-04-30T10:47:49.949Z,51.65
2019-04-30T10:48:49.894Z,52.33
2019-04-30T10:49:49.835Z,52.04
2019-04-30T10:50:49.794Z,51.43
2019-04-30T10:51:49.777Z,52.04
2019-04-30T10:52:49.746Z,51.75
2019-04-30T10:53:50.913Z,51.65
2019-04-30T10:54:49.782Z,50.71
2019-04-30T10:55:49.575Z,51.68
2019-04-30T10:56:51.324Z,51.87
2019-04-30T10:57:49.623Z,52.55
2019-04-30T10:58:49.470Z,51.77
2019-04-30T10:59:49.406Z,52.64
2019-04-30T11:00:49.896Z,50.62
2019-04-30T11:01:49.390Z,48.49
2019-04-30T11:02:49.721Z,48.21
2019-04-30T11:03:49.232Z,46.76
2019-04-30T11:04:49.189Z,48.21
2019-04-30T11:05:49.146Z,48.57
2019-04-30T11:06:49.103Z,46.83
2019-04-30T11:07:49.569Z,47.70
2019-04-30T11:08:49.049Z,46.93
2019-04-30T11:09:49.397Z,46.93
2019-04-30T11:10:48.940Z,48.08
2019-04-30T11:11:49.718Z,47.99
2019-04-30T11:12:48.851Z,48.95
2019-04-30T11:13:48.804Z,48.38
2019-04-30T11:14:48.790Z,51.36
2019-04-30T11:15:49.248Z,51.36
2019-04-30T11:16:51.220Z,50.23
2019-04-30T11:17:49.616Z,49.73
2019-04-30T11:18:48.790Z,50.69
2019-04-30T11:19:49.281Z,48.97
2019-04-30T11:20:49.808Z,51.77
2019-04-30T11:21:48.643Z,51.87
2019-04-30T11:22:48.519Z,50.23
2019-04-30T11:23:49.466Z,49.29
2019-04-30T11:24:59.026Z,47.63
2019-04-30T11:25:50.768Z,47.14
2019-04-30T11:26:50.090Z,48.69
2019-04-30T11:27:50.670Z,51.58
2019-04-30T11:28:48.394Z,49.27
2019-04-30T11:29:49.460Z,49.29
2019-04-30T11:30:48.318Z,49.19
2019-04-30T11:31:48.273Z,48.61
2019-04-30T11:32:48.178Z,47.94
2019-04-30T11:33:48.266Z,48.42
2019-04-30T11:34:47.937Z,48.52
2019-04-30T11:35:52.828Z,46.78
2019-04-30T11:36:47.826Z,45.72
2019-04-30T11:37:47.817Z,46.40
2019-04-30T11:38:48.742Z,47.85
2019-04-30T11:39:47.733Z,48.01
2019-04-30T11:40:48.589Z,46.97
2019-04-30T11:41:47.614Z,46.11
2019-04-30T11:42:47.572Z,45.99
2019-04-30T11:43:49.536Z,46.30
2019-04-30T11:44:48.752Z,46.11
2019-04-30T11:45:47.445Z,46.69
2019-04-30T11:46:49.452Z,48.03
2019-04-30T11:47:53.323Z,46.78
2019-04-30T11:48:48.986Z,45.92
2019-04-30T11:49:47.277Z,46.20
2019-04-30T11:50:49.133Z,45.45
2019-04-30T11:51:47.191Z,45.84
2019-04-30T11:52:47.176Z,45.84
2019-04-30T11:53:48.938Z,45.65
2019-04-30T11:54:51.638Z,46.01
2019-04-30T11:55:49.043Z,45.45
2019-04-30T11:56:50.306Z,45.24
2019-04-30T11:57:46.939Z,45.92
2019-04-30T11:58:48.806Z,45.92
2019-04-30T11:59:46.860Z,46.69
2019-04-30T12:00:46.850Z,47.58
2019-04-30T12:01:46.776Z,47.87
2019-04-30T12:02:46.731Z,46.20
2019-04-30T12:03:46.718Z,45.24
2019-04-30T12:04:46.644Z,45.53
2019-04-30T12:05:46.629Z,43.60
2019-04-30T12:06:46.559Z,46.20
2019-04-30T12:07:48.325Z,44.18
2019-04-30T12:08:46.474Z,44.37
2019-04-30T12:09:48.388Z,44.85
2019-04-30T12:10:46.427Z,45.82
2019-04-30T12:11:46.349Z,46.01
2019-04-30T12:12:46.343Z,43.50
2019-04-30T12:13:46.267Z,42.73
2019-04-30T12:14:46.226Z,44.08
2019-04-30T12:15:46.181Z,42.83
2019-04-30T12:16:46.142Z,44.46
2019-04-30T12:17:46.137Z,43.79
2019-04-30T12:18:46.090Z,44.27
2019-04-30T12:19:46.016Z,45.53
2019-04-30T12:20:45.972Z,45.84
2019-04-30T12:21:45.931Z,44.01
2019-04-30T12:22:45.896Z,45.84
2019-04-30T12:23:45.879Z,46.13
2019-04-30T12:24:45.807Z,43.81
2019-04-30T12:25:45.797Z,44.29
2019-04-30T12:26:45.755Z,43.14
2019-04-30T12:27:45.681Z,43.91
2019-04-30T12:28:45.635Z,43.91
2019-04-30T12:29:45.634Z,44.49
2019-04-30T12:30:45.554Z,42.08
2019-04-30T12:31:45.514Z,42.36
2019-04-30T12:32:45.473Z,43.91
2019-04-30T12:33:45.427Z,43.04
2019-04-30T12:34:45.417Z,42.18
2019-04-30T12:35:45.346Z,42.18
2019-04-30T12:36:45.331Z,43.72
2019-04-30T12:37:45.259Z,44.22
2019-04-30T12:38:45.220Z,46.13
2019-04-30T12:39:45.176Z,45.07
2019-04-30T12:40:45.133Z,44.68
2019-04-30T12:41:45.157Z,45.65
2019-04-30T12:42:45.058Z,45.65
2019-04-30T12:43:45.010Z,43.91
2019-04-30T12:44:44.968Z,43.91
2019-04-30T12:45:44.925Z,44.22
2019-04-30T12:46:44.953Z,43.45
2019-04-30T12:47:44.844Z,40.44
2019-04-30T12:48:44.804Z,43.33
2019-04-30T12:49:44.780Z,45.36
2019-04-30T12:50:44.718Z,43.52
2019-04-30T12:51:45.805Z,43.62